sensor_id;sensor_type;location;lat;lon;timestamp;temperature;humidity
25154;DHT22;47555;51.038;6.280;2022-09-09T00:00:55;15.40;99.90
25154;DHT22;47555;51.038;6.280;2022-09-09T00:03:27;15.30;99.90
25154;DHT22;47555;51.038;6.280;2022-09-09T00:06:09;15.30;99.90
25154;DHT22;47555;51.038;6.280;2022-09-09T00:08:57;15.30;99.90
25154;DHT22;47555;51.038;6.280;2022-09-09T00:12:15;15.30;99.90
25154;DHT22;47555;51.038;6.280;2022-09-09T00:14:34;15.20;99.90
25154;DHT22;47555;51.038;6.280;2022-09-09T00:17:09;15.20;99.90
25154;DHT22;47555;51.038;6.280;2022-09-09T00:19:56;15.20;99.90
25154;DHT22;47555;51.038;6.280;2022-09-09T00:22:28;15.20;99.90
25154;DHT22;47555;51.038;6.280;2022-09-09T00:25:08;15.20;99.90
25154;DHT22;47555;51.038;6.280;2022-09-09T00:27:44;15.10;99.90
25154;DHT22;47555;51.038;6.280;2022-09-09T00:30:19;15.10;99.90
25154;DHT22;47555;51.038;6.280;2022-09-09T00:33:01;15.10;99.90
25154;DHT22;47555;51.038;6.280;2022-09-09T00:35:40;15.10;99.90
25154;DHT22;47555;51.038;6.280;2022-09-09T00:38:15;15.00;99.90
25154;DHT22;47555;51.038;6.280;2022-09-09T00:41:02;15.00;99.90
25154;DHT22;47555;51.038;6.280;2022-09-09T00:43:31;15.00;99.90
25154;DHT22;47555;51.038;6.280;2022-09-09T00:52:06;14.90;99.90
25154;DHT22;47555;51.038;6.280;2022-09-09T00:54:50;14.90;99.90
25154;DHT22;47555;51.038;6.280;2022-09-09T00:57:25;14.90;99.90
25154;DHT22;47555;51.038;6.280;2022-09-09T01:05:33;14.90;99.90
25154;DHT22;47555;51.038;6.280;2022-09-09T01:08:01;14.90;99.90
25154;DHT22;47555;51.038;6.280;2022-09-09T01:10:51;14.80;99.90
25154;DHT22;47555;51.038;6.280;2022-09-09T01:13:33;14.80;99.90
25154;DHT22;47555;51.038;6.280;2022-09-09T01:16:01;14.80;99.90
25154;DHT22;47555;51.038;6.280;2022-09-09T01:18:34;14.80;99.90
25154;DHT22;47555;51.038;6.280;2022-09-09T01:24:15;14.80;99.90
25154;DHT22;47555;51.038;6.280;2022-09-09T01:26:45;14.80;99.90
25154;DHT22;47555;51.038;6.280;2022-09-09T01:29:17;14.80;99.90
25154;DHT22;47555;51.038;6.280;2022-09-09T01:31:53;14.80;99.90
25154;DHT22;47555;51.038;6.280;2022-09-09T01:34:20;14.80;99.90
25154;DHT22;47555;51.038;6.280;2022-09-09T01:39:18;14.80;99.90
25154;DHT22;47555;51.038;6.280;2022-09-09T01:41:44;14.80;99.90
25154;DHT22;47555;51.038;6.280;2022-09-09T01:44:09;14.80;99.90
25154;DHT22;47555;51.038;6.280;2022-09-09T01:46:36;14.80;99.90
25154;DHT22;47555;51.038;6.280;2022-09-09T01:49:04;14.80;99.90
25154;DHT22;47555;51.038;6.280;2022-09-09T01:51:31;14.80;99.90
25154;DHT22;47555;51.038;6.280;2022-09-09T01:53:56;14.80;99.90
25154;DHT22;47555;51.038;6.280;2022-09-09T01:59:47;14.80;99.90
25154;DHT22;47555;51.038;6.280;2022-09-09T02:04:42;14.80;99.90
25154;DHT22;47555;51.038;6.280;2022-09-09T02:07:36;14.80;99.90
25154;DHT22;47555;51.038;6.280;2022-09-09T02:12:58;14.70;99.90
25154;DHT22;47555;51.038;6.280;2022-09-09T02:15:42;14.70;99.90
25154;DHT22;47555;51.038;6.280;2022-09-09T02:18:12;14.70;99.90
25154;DHT22;47555;51.038;6.280;2022-09-09T02:20:39;14.80;99.90
25154;DHT22;47555;51.038;6.280;2022-09-09T02:23:07;14.80;99.90
25154;DHT22;47555;51.038;6.280;2022-09-09T02:25:35;14.80;99.90
25154;DHT22;47555;51.038;6.280;2022-09-09T02:28:03;14.70;99.90
25154;DHT22;47555;51.038;6.280;2022-09-09T02:30:30;14.80;99.90
25154;DHT22;47555;51.038;6.280;2022-09-09T02:32:58;14.90;99.90
25154;DHT22;47555;51.038;6.280;2022-09-09T02:35:25;14.90;99.90
25154;DHT22;47555;51.038;6.280;2022-09-09T02:37:54;14.90;99.90
25154;DHT22;47555;51.038;6.280;2022-09-09T02:40:22;15.00;99.90
25154;DHT22;47555;51.038;6.280;2022-09-09T02:42:48;15.00;99.90
25154;DHT22;47555;51.038;6.280;2022-09-09T02:45:18;15.00;99.90
25154;DHT22;47555;51.038;6.280;2022-09-09T02:48:12;15.00;99.90
25154;DHT22;47555;51.038;6.280;2022-09-09T02:53:20;15.10;99.90
25154;DHT22;47555;51.038;6.280;2022-09-09T02:56:07;15.00;99.90
25154;DHT22;47555;51.038;6.280;2022-09-09T02:58:35;15.10;99.90
25154;DHT22;47555;51.038;6.280;2022-09-09T03:01:04;15.10;99.90
25154;DHT22;47555;51.038;6.280;2022-09-09T03:03:29;15.10;99.90
25154;DHT22;47555;51.038;6.280;2022-09-09T03:05:55;15.10;99.90
25154;DHT22;47555;51.038;6.280;2022-09-09T03:08:22;15.10;99.90
25154;DHT22;47555;51.038;6.280;2022-09-09T03:10:47;15.10;99.90
25154;DHT22;47555;51.038;6.280;2022-09-09T03:13:13;15.10;99.90
25154;DHT22;47555;51.038;6.280;2022-09-09T03:15:40;15.10;99.90
25154;DHT22;47555;51.038;6.280;2022-09-09T03:18:06;15.20;99.90
25154;DHT22;47555;51.038;6.280;2022-09-09T03:20:31;15.20;99.90
25154;DHT22;47555;51.038;6.280;2022-09-09T03:22:59;15.20;99.90
25154;DHT22;47555;51.038;6.280;2022-09-09T03:25:25;15.20;99.90
25154;DHT22;47555;51.038;6.280;2022-09-09T03:27:52;15.30;99.90
25154;DHT22;47555;51.038;6.280;2022-09-09T03:30:20;15.30;99.90
25154;DHT22;47555;51.038;6.280;2022-09-09T03:32:46;15.30;99.90
25154;DHT22;47555;51.038;6.280;2022-09-09T03:35:11;15.30;99.90
25154;DHT22;47555;51.038;6.280;2022-09-09T03:37:37;15.40;99.90
25154;DHT22;47555;51.038;6.280;2022-09-09T03:40:04;15.40;99.90
25154;DHT22;47555;51.038;6.280;2022-09-09T03:42:30;15.40;99.90
25154;DHT22;47555;51.038;6.280;2022-09-09T03:44:56;15.40;99.90
25154;DHT22;47555;51.038;6.280;2022-09-09T03:47:23;15.40;99.90
25154;DHT22;47555;51.038;6.280;2022-09-09T03:49:48;15.40;99.90
25154;DHT22;47555;51.038;6.280;2022-09-09T03:52:15;15.40;99.90
25154;DHT22;47555;51.038;6.280;2022-09-09T03:54:41;15.50;99.90
25154;DHT22;47555;51.038;6.280;2022-09-09T03:57:10;15.40;99.90
25154;DHT22;47555;51.038;6.280;2022-09-09T03:59:36;15.40;99.90
25154;DHT22;47555;51.038;6.280;2022-09-09T04:02:02;15.50;99.90
25154;DHT22;47555;51.038;6.280;2022-09-09T04:04:28;15.50;99.90
25154;DHT22;47555;51.038;6.280;2022-09-09T04:06:53;15.50;99.90
25154;DHT22;47555;51.038;6.280;2022-09-09T04:09:19;15.50;99.90
25154;DHT22;47555;51.038;6.280;2022-09-09T04:11:45;15.50;99.90
25154;DHT22;47555;51.038;6.280;2022-09-09T04:14:11;15.60;99.90
25154;DHT22;47555;51.038;6.280;2022-09-09T04:16:38;15.60;99.90
25154;DHT22;47555;51.038;6.280;2022-09-09T04:19:04;15.60;99.90
25154;DHT22;47555;51.038;6.280;2022-09-09T04:21:30;15.60;99.90
25154;DHT22;47555;51.038;6.280;2022-09-09T04:23:56;15.60;99.90
25154;DHT22;47555;51.038;6.280;2022-09-09T04:26:22;15.60;99.90
25154;DHT22;47555;51.038;6.280;2022-09-09T04:28:48;15.70;99.90
25154;DHT22;47555;51.038;6.280;2022-09-09T04:31:19;15.70;99.90
25154;DHT22;47555;51.038;6.280;2022-09-09T04:33:45;15.70;99.90
25154;DHT22;47555;51.038;6.280;2022-09-09T04:36:12;15.70;99.90
25154;DHT22;47555;51.038;6.280;2022-09-09T04:38:38;15.70;99.90
25154;DHT22;47555;51.038;6.280;2022-09-09T04:41:05;15.70;99.90
25154;DHT22;47555;51.038;6.280;2022-09-09T04:43:31;15.70;99.90
25154;DHT22;47555;51.038;6.280;2022-09-09T04:45:56;15.70;99.90
25154;DHT22;47555;51.038;6.280;2022-09-09T04:48:22;15.70;99.90
25154;DHT22;47555;51.038;6.280;2022-09-09T04:51:05;15.70;99.90
25154;DHT22;47555;51.038;6.280;2022-09-09T04:53:32;15.80;99.90
25154;DHT22;47555;51.038;6.280;2022-09-09T04:58:35;15.80;99.90
25154;DHT22;47555;51.038;6.280;2022-09-09T05:01:08;15.80;99.90
25154;DHT22;47555;51.038;6.280;2022-09-09T05:03:34;15.80;99.90
25154;DHT22;47555;51.038;6.280;2022-09-09T05:06:07;15.80;99.90
25154;DHT22;47555;51.038;6.280;2022-09-09T05:08:36;15.80;99.90
25154;DHT22;47555;51.038;6.280;2022-09-09T05:11:01;15.80;99.90
25154;DHT22;47555;51.038;6.280;2022-09-09T05:13:27;15.80;99.90
25154;DHT22;47555;51.038;6.280;2022-09-09T05:15:54;15.90;99.90
25154;DHT22;47555;51.038;6.280;2022-09-09T05:18:20;15.90;99.90
25154;DHT22;47555;51.038;6.280;2022-09-09T05:20:48;15.80;99.90
25154;DHT22;47555;51.038;6.280;2022-09-09T05:23:13;15.80;99.90
25154;DHT22;47555;51.038;6.280;2022-09-09T05:25:39;15.80;99.90
25154;DHT22;47555;51.038;6.280;2022-09-09T05:28:07;15.80;99.90
25154;DHT22;47555;51.038;6.280;2022-09-09T05:30:33;15.80;99.90
25154;DHT22;47555;51.038;6.280;2022-09-09T05:32:59;15.80;99.90
25154;DHT22;47555;51.038;6.280;2022-09-09T05:35:25;15.80;99.90
25154;DHT22;47555;51.038;6.280;2022-09-09T05:37:50;15.80;99.90
25154;DHT22;47555;51.038;6.280;2022-09-09T05:40:16;15.80;99.90
25154;DHT22;47555;51.038;6.280;2022-09-09T05:42:41;15.80;99.90
25154;DHT22;47555;51.038;6.280;2022-09-09T05:45:08;15.90;99.90
25154;DHT22;47555;51.038;6.280;2022-09-09T05:47:35;15.90;99.90
25154;DHT22;47555;51.038;6.280;2022-09-09T05:50:02;15.90;99.90
25154;DHT22;47555;51.038;6.280;2022-09-09T05:52:28;15.90;99.90
25154;DHT22;47555;51.038;6.280;2022-09-09T05:54:54;15.90;99.90
25154;DHT22;47555;51.038;6.280;2022-09-09T05:57:20;15.90;99.90
25154;DHT22;47555;51.038;6.280;2022-09-09T05:59:46;15.90;99.90
25154;DHT22;47555;51.038;6.280;2022-09-09T06:02:11;15.90;99.90
25154;DHT22;47555;51.038;6.280;2022-09-09T06:04:38;15.90;99.90
25154;DHT22;47555;51.038;6.280;2022-09-09T06:07:04;15.90;99.90
25154;DHT22;47555;51.038;6.280;2022-09-09T06:09:30;15.90;99.90
25154;DHT22;47555;51.038;6.280;2022-09-09T06:11:56;15.90;99.90
25154;DHT22;47555;51.038;6.280;2022-09-09T06:14:23;16.00;99.90
25154;DHT22;47555;51.038;6.280;2022-09-09T06:16:50;16.00;99.90
25154;DHT22;47555;51.038;6.280;2022-09-09T06:19:16;16.10;99.90
25154;DHT22;47555;51.038;6.280;2022-09-09T06:21:42;16.10;99.90
25154;DHT22;47555;51.038;6.280;2022-09-09T06:24:08;16.10;99.90
25154;DHT22;47555;51.038;6.280;2022-09-09T06:26:36;16.20;99.90
25154;DHT22;47555;51.038;6.280;2022-09-09T06:29:03;16.30;99.90
25154;DHT22;47555;51.038;6.280;2022-09-09T06:31:34;16.40;99.90
25154;DHT22;47555;51.038;6.280;2022-09-09T06:34:07;16.30;99.90
25154;DHT22;47555;51.038;6.280;2022-09-09T06:36:35;16.40;99.90
25154;DHT22;47555;51.038;6.280;2022-09-09T06:39:02;16.30;99.90
25154;DHT22;47555;51.038;6.280;2022-09-09T06:41:30;16.30;99.90
25154;DHT22;47555;51.038;6.280;2022-09-09T06:43:56;16.30;99.90
25154;DHT22;47555;51.038;6.280;2022-09-09T06:46:24;16.30;99.90
25154;DHT22;47555;51.038;6.280;2022-09-09T06:48:53;16.20;99.90
25154;DHT22;47555;51.038;6.280;2022-09-09T06:51:22;16.30;99.90
25154;DHT22;47555;51.038;6.280;2022-09-09T06:53:50;16.50;99.90
25154;DHT22;47555;51.038;6.280;2022-09-09T06:58:42;16.80;99.90
25154;DHT22;47555;51.038;6.280;2022-09-09T07:01:11;17.00;99.90
25154;DHT22;47555;51.038;6.280;2022-09-09T07:03:38;17.20;99.90
25154;DHT22;47555;51.038;6.280;2022-09-09T07:06:04;17.50;99.90
25154;DHT22;47555;51.038;6.280;2022-09-09T07:08:30;17.70;99.90
25154;DHT22;47555;51.038;6.280;2022-09-09T07:11:02;17.90;99.90
25154;DHT22;47555;51.038;6.280;2022-09-09T07:13:30;18.00;99.90
25154;DHT22;47555;51.038;6.280;2022-09-09T07:16:06;18.10;99.90
25154;DHT22;47555;51.038;6.280;2022-09-09T07:18:32;18.10;99.90
25154;DHT22;47555;51.038;6.280;2022-09-09T07:20:58;18.00;99.90
25154;DHT22;47555;51.038;6.280;2022-09-09T07:23:24;18.00;99.90
25154;DHT22;47555;51.038;6.280;2022-09-09T07:25:50;17.90;99.90
25154;DHT22;47555;51.038;6.280;2022-09-09T07:28:21;17.80;99.90
25154;DHT22;47555;51.038;6.280;2022-09-09T07:30:55;17.80;99.90
25154;DHT22;47555;51.038;6.280;2022-09-09T07:33:25;17.70;99.90
25154;DHT22;47555;51.038;6.280;2022-09-09T07:35:52;17.80;99.90
25154;DHT22;47555;51.038;6.280;2022-09-09T07:38:18;17.70;99.90
25154;DHT22;47555;51.038;6.280;2022-09-09T07:40:45;17.80;99.90
25154;DHT22;47555;51.038;6.280;2022-09-09T07:43:11;17.80;99.90
25154;DHT22;47555;51.038;6.280;2022-09-09T07:45:37;17.90;99.90
25154;DHT22;47555;51.038;6.280;2022-09-09T07:48:04;18.00;99.90
25154;DHT22;47555;51.038;6.280;2022-09-09T07:50:30;18.30;99.90
25154;DHT22;47555;51.038;6.280;2022-09-09T07:52:56;18.50;99.90
25154;DHT22;47555;51.038;6.280;2022-09-09T07:55:22;18.70;99.80
25154;DHT22;47555;51.038;6.280;2022-09-09T07:57:53;18.90;99.00
25154;DHT22;47555;51.038;6.280;2022-09-09T08:00:19;19.00;99.90
25154;DHT22;47555;51.038;6.280;2022-09-09T08:02:45;19.30;98.60
25154;DHT22;47555;51.038;6.280;2022-09-09T08:05:11;19.40;97.80
25154;DHT22;47555;51.038;6.280;2022-09-09T08:07:38;19.60;95.10
25154;DHT22;47555;51.038;6.280;2022-09-09T08:10:04;19.70;93.00
25154;DHT22;47555;51.038;6.280;2022-09-09T08:12:31;19.80;94.10
25154;DHT22;47555;51.038;6.280;2022-09-09T08:14:57;19.80;91.10
25154;DHT22;47555;51.038;6.280;2022-09-09T08:17:23;19.80;91.30
25154;DHT22;47555;51.038;6.280;2022-09-09T08:19:48;19.80;90.70
25154;DHT22;47555;51.038;6.280;2022-09-09T08:22:14;19.90;91.70
25154;DHT22;47555;51.038;6.280;2022-09-09T08:24:39;20.00;91.50
25154;DHT22;47555;51.038;6.280;2022-09-09T08:27:06;19.90;91.30
25154;DHT22;47555;51.038;6.280;2022-09-09T08:29:31;19.70;92.10
25154;DHT22;47555;51.038;6.280;2022-09-09T08:31:58;19.50;92.60
25154;DHT22;47555;51.038;6.280;2022-09-09T08:34:25;19.60;93.50
25154;DHT22;47555;51.038;6.280;2022-09-09T08:36:53;19.60;95.80
25154;DHT22;47555;51.038;6.280;2022-09-09T08:39:20;19.80;91.70
25154;DHT22;47555;51.038;6.280;2022-09-09T08:52:48;20.20;83.70
25154;DHT22;47555;51.038;6.280;2022-09-09T08:57:53;19.80;85.40
25154;DHT22;47555;51.038;6.280;2022-09-09T09:00:19;19.60;86.40
25154;DHT22;47555;51.038;6.280;2022-09-09T09:11:58;19.80;89.90
25154;DHT22;47555;51.038;6.280;2022-09-09T09:14:30;20.20;88.20
25154;DHT22;47555;51.038;6.280;2022-09-09T09:17:31;20.50;85.40
25154;DHT22;47555;51.038;6.280;2022-09-09T09:19:58;20.80;83.10
25154;DHT22;47555;51.038;6.280;2022-09-09T09:22:43;21.10;88.00
25154;DHT22;47555;51.038;6.280;2022-09-09T09:25:23;21.30;76.60
25154;DHT22;47555;51.038;6.280;2022-09-09T09:28:15;21.20;71.60
25154;DHT22;47555;51.038;6.280;2022-09-09T09:30:50;21.10;69.40
25154;DHT22;47555;51.038;6.280;2022-09-09T09:33:23;21.00;73.30
25154;DHT22;47555;51.038;6.280;2022-09-09T09:35:50;20.90;77.30
25154;DHT22;47555;51.038;6.280;2022-09-09T09:38:26;20.90;76.50
25154;DHT22;47555;51.038;6.280;2022-09-09T09:40:55;20.70;76.90
25154;DHT22;47555;51.038;6.280;2022-09-09T09:43:37;20.60;81.00
25154;DHT22;47555;51.038;6.280;2022-09-09T09:46:16;20.50;81.80
25154;DHT22;47555;51.038;6.280;2022-09-09T09:48:42;20.50;78.60
25154;DHT22;47555;51.038;6.280;2022-09-09T09:51:11;20.30;79.60
25154;DHT22;47555;51.038;6.280;2022-09-09T09:53:39;20.20;78.60
25154;DHT22;47555;51.038;6.280;2022-09-09T09:56:10;20.10;81.70
25154;DHT22;47555;51.038;6.280;2022-09-09T09:58:56;20.10;80.40
25154;DHT22;47555;51.038;6.280;2022-09-09T10:01:30;20.10;77.90
25154;DHT22;47555;51.038;6.280;2022-09-09T10:04:13;20.10;80.70
25154;DHT22;47555;51.038;6.280;2022-09-09T10:06:40;20.10;82.90
25154;DHT22;47555;51.038;6.280;2022-09-09T10:12:19;20.10;79.50
25154;DHT22;47555;51.038;6.280;2022-09-09T10:17:44;19.90;80.50
25154;DHT22;47555;51.038;6.280;2022-09-09T10:20:35;19.80;83.20
25154;DHT22;47555;51.038;6.280;2022-09-09T10:29:07;19.50;83.50
25154;DHT22;47555;51.038;6.280;2022-09-09T10:37:01;19.40;85.80
25154;DHT22;47555;51.038;6.280;2022-09-09T10:39:38;19.40;85.80
25154;DHT22;47555;51.038;6.280;2022-09-09T10:42:16;19.40;87.30
25154;DHT22;47555;51.038;6.280;2022-09-09T10:44:55;19.40;87.60
25154;DHT22;47555;51.038;6.280;2022-09-09T10:50:46;19.40;90.00
25154;DHT22;47555;51.038;6.280;2022-09-09T10:53:41;19.50;90.90
25154;DHT22;47555;51.038;6.280;2022-09-09T10:56:14;19.60;90.00
25154;DHT22;47555;51.038;6.280;2022-09-09T10:58:47;19.70;91.00
25154;DHT22;47555;51.038;6.280;2022-09-09T11:01:24;19.70;89.30
25154;DHT22;47555;51.038;6.280;2022-09-09T11:03:56;19.80;90.40
25154;DHT22;47555;51.038;6.280;2022-09-09T11:06:30;19.90;90.80
25154;DHT22;47555;51.038;6.280;2022-09-09T11:08:59;19.90;87.90
25154;DHT22;47555;51.038;6.280;2022-09-09T11:11:32;19.80;88.80
25154;DHT22;47555;51.038;6.280;2022-09-09T11:14:22;20.00;91.20
25154;DHT22;47555;51.038;6.280;2022-09-09T11:17:05;20.10;91.40
25154;DHT22;47555;51.038;6.280;2022-09-09T11:19:40;20.10;88.00
25154;DHT22;47555;51.038;6.280;2022-09-09T11:22:22;20.00;88.80
25154;DHT22;47555;51.038;6.280;2022-09-09T11:24:56;20.00;89.20
25154;DHT22;47555;51.038;6.280;2022-09-09T11:27:36;20.10;89.60
25154;DHT22;47555;51.038;6.280;2022-09-09T11:30:15;20.20;89.60
25154;DHT22;47555;51.038;6.280;2022-09-09T11:38:14;20.30;85.70
25154;DHT22;47555;51.038;6.280;2022-09-09T11:40:41;20.30;85.90
25154;DHT22;47555;51.038;6.280;2022-09-09T11:45:39;20.30;85.20
25154;DHT22;47555;51.038;6.280;2022-09-09T11:48:05;20.30;86.20
25154;DHT22;47555;51.038;6.280;2022-09-09T11:51:01;20.20;86.90
25154;DHT22;47555;51.038;6.280;2022-09-09T11:53:28;20.10;89.30
25154;DHT22;47555;51.038;6.280;2022-09-09T11:56:30;20.10;90.50
25154;DHT22;47555;51.038;6.280;2022-09-09T11:59:02;20.10;87.40
25154;DHT22;47555;51.038;6.280;2022-09-09T12:01:36;20.00;87.40
25154;DHT22;47555;51.038;6.280;2022-09-09T12:07:00;19.80;89.90
25154;DHT22;47555;51.038;6.280;2022-09-09T12:09:33;19.70;91.90
25154;DHT22;47555;51.038;6.280;2022-09-09T12:12:24;19.60;96.00
25154;DHT22;47555;51.038;6.280;2022-09-09T12:15:18;19.40;99.90
25154;DHT22;47555;51.038;6.280;2022-09-09T12:17:48;19.00;99.90
25154;DHT22;47555;51.038;6.280;2022-09-09T12:29:06;18.30;99.90
25154;DHT22;47555;51.038;6.280;2022-09-09T12:34:34;18.20;99.90
25154;DHT22;47555;51.038;6.280;2022-09-09T12:39:55;18.30;99.90
25154;DHT22;47555;51.038;6.280;2022-09-09T12:42:22;18.40;99.90
25154;DHT22;47555;51.038;6.280;2022-09-09T12:44:52;18.50;99.90
25154;DHT22;47555;51.038;6.280;2022-09-09T12:47:21;18.60;99.90
25154;DHT22;47555;51.038;6.280;2022-09-09T12:49:47;18.70;99.90
25154;DHT22;47555;51.038;6.280;2022-09-09T12:52:29;18.70;99.90
25154;DHT22;47555;51.038;6.280;2022-09-09T12:54:55;18.80;99.90
25154;DHT22;47555;51.038;6.280;2022-09-09T12:57:23;18.80;99.90
25154;DHT22;47555;51.038;6.280;2022-09-09T12:59:51;18.90;99.90
25154;DHT22;47555;51.038;6.280;2022-09-09T13:02:23;18.90;99.90
25154;DHT22;47555;51.038;6.280;2022-09-09T13:04:50;18.90;99.90
25154;DHT22;47555;51.038;6.280;2022-09-09T13:07:18;18.90;99.90
25154;DHT22;47555;51.038;6.280;2022-09-09T13:09:44;18.80;99.90
25154;DHT22;47555;51.038;6.280;2022-09-09T13:12:16;18.80;99.90
25154;DHT22;47555;51.038;6.280;2022-09-09T13:14:46;18.80;99.90
25154;DHT22;47555;51.038;6.280;2022-09-09T13:17:24;18.80;99.90
25154;DHT22;47555;51.038;6.280;2022-09-09T13:19:51;18.90;99.90
25154;DHT22;47555;51.038;6.280;2022-09-09T13:22:34;19.00;99.90
25154;DHT22;47555;51.038;6.280;2022-09-09T13:25:02;19.20;99.90
25154;DHT22;47555;51.038;6.280;2022-09-09T13:27:34;19.30;99.90
25154;DHT22;47555;51.038;6.280;2022-09-09T13:32:46;19.70;99.90
25154;DHT22;47555;51.038;6.280;2022-09-09T13:35:23;19.80;99.90
25154;DHT22;47555;51.038;6.280;2022-09-09T13:37:49;19.90;99.90
25154;DHT22;47555;51.038;6.280;2022-09-09T13:40:20;20.00;99.90
25154;DHT22;47555;51.038;6.280;2022-09-09T13:42:47;20.20;99.90
25154;DHT22;47555;51.038;6.280;2022-09-09T13:45:21;20.30;99.90
25154;DHT22;47555;51.038;6.280;2022-09-09T13:47:47;20.30;96.70
25154;DHT22;47555;51.038;6.280;2022-09-09T13:50:28;20.30;97.10
25154;DHT22;47555;51.038;6.280;2022-09-09T13:52:56;20.20;97.60
25154;DHT22;47555;51.038;6.280;2022-09-09T13:55:27;20.10;97.90
25154;DHT22;47555;51.038;6.280;2022-09-09T13:57:55;20.00;98.80
25154;DHT22;47555;51.038;6.280;2022-09-09T14:00:21;19.80;91.00
25154;DHT22;47555;51.038;6.280;2022-09-09T14:02:51;19.60;87.90
25154;DHT22;47555;51.038;6.280;2022-09-09T14:05:19;19.40;88.90
25154;DHT22;47555;51.038;6.280;2022-09-09T14:07:45;19.10;90.10
25154;DHT22;47555;51.038;6.280;2022-09-09T14:10:12;18.80;97.20
25154;DHT22;47555;51.038;6.280;2022-09-09T14:12:37;18.50;99.90
25154;DHT22;47555;51.038;6.280;2022-09-09T14:15:05;18.20;99.90
25154;DHT22;47555;51.038;6.280;2022-09-09T14:17:31;17.90;99.90
25154;DHT22;47555;51.038;6.280;2022-09-09T14:19:57;17.70;99.90
25154;DHT22;47555;51.038;6.280;2022-09-09T14:22:23;17.60;99.90
25154;DHT22;47555;51.038;6.280;2022-09-09T14:24:49;17.60;99.90
25154;DHT22;47555;51.038;6.280;2022-09-09T14:27:15;17.50;99.90
25154;DHT22;47555;51.038;6.280;2022-09-09T14:29:41;17.60;99.90
25154;DHT22;47555;51.038;6.280;2022-09-09T14:32:06;17.60;99.90
25154;DHT22;47555;51.038;6.280;2022-09-09T14:34:32;17.70;99.90
25154;DHT22;47555;51.038;6.280;2022-09-09T14:36:58;17.70;99.90
25154;DHT22;47555;51.038;6.280;2022-09-09T14:39:23;17.80;99.90
25154;DHT22;47555;51.038;6.280;2022-09-09T14:41:49;17.90;99.90
25154;DHT22;47555;51.038;6.280;2022-09-09T14:44:14;18.00;99.90
25154;DHT22;47555;51.038;6.280;2022-09-09T14:46:41;18.00;99.90
25154;DHT22;47555;51.038;6.280;2022-09-09T14:49:08;18.10;99.90
25154;DHT22;47555;51.038;6.280;2022-09-09T14:51:33;18.10;99.90
25154;DHT22;47555;51.038;6.280;2022-09-09T14:53:59;18.20;99.90
25154;DHT22;47555;51.038;6.280;2022-09-09T14:56:28;18.20;99.90
25154;DHT22;47555;51.038;6.280;2022-09-09T14:58:55;18.20;99.90
25154;DHT22;47555;51.038;6.280;2022-09-09T15:01:22;18.20;99.90
25154;DHT22;47555;51.038;6.280;2022-09-09T15:03:56;18.10;99.90
25154;DHT22;47555;51.038;6.280;2022-09-09T15:06:23;18.10;99.90
25154;DHT22;47555;51.038;6.280;2022-09-09T15:08:51;18.10;99.90
25154;DHT22;47555;51.038;6.280;2022-09-09T15:11:18;18.10;99.90
25154;DHT22;47555;51.038;6.280;2022-09-09T15:13:44;18.10;99.90
25154;DHT22;47555;51.038;6.280;2022-09-09T15:16:17;18.10;99.90
25154;DHT22;47555;51.038;6.280;2022-09-09T15:18:44;18.10;99.90
25154;DHT22;47555;51.038;6.280;2022-09-09T15:21:11;18.10;99.90
25154;DHT22;47555;51.038;6.280;2022-09-09T15:23:37;18.10;99.90
25154;DHT22;47555;51.038;6.280;2022-09-09T15:26:04;18.10;99.90
25154;DHT22;47555;51.038;6.280;2022-09-09T15:28:31;18.10;99.90
25154;DHT22;47555;51.038;6.280;2022-09-09T15:30:58;18.10;99.90
25154;DHT22;47555;51.038;6.280;2022-09-09T15:33:25;18.20;99.90
25154;DHT22;47555;51.038;6.280;2022-09-09T15:35:50;18.20;99.90
25154;DHT22;47555;51.038;6.280;2022-09-09T15:38:16;18.30;99.90
25154;DHT22;47555;51.038;6.280;2022-09-09T15:40:43;18.30;99.90
25154;DHT22;47555;51.038;6.280;2022-09-09T15:43:09;18.20;99.90
25154;DHT22;47555;51.038;6.280;2022-09-09T15:45:36;18.10;99.90
25154;DHT22;47555;51.038;6.280;2022-09-09T15:48:02;18.00;99.90
25154;DHT22;47555;51.038;6.280;2022-09-09T15:50:28;18.00;99.90
25154;DHT22;47555;51.038;6.280;2022-09-09T15:52:58;17.90;99.90
25154;DHT22;47555;51.038;6.280;2022-09-09T15:55:24;17.80;99.90
25154;DHT22;47555;51.038;6.280;2022-09-09T15:57:49;17.70;99.90
25154;DHT22;47555;51.038;6.280;2022-09-09T16:00:17;17.70;99.90
25154;DHT22;47555;51.038;6.280;2022-09-09T16:02:43;17.60;99.90
25154;DHT22;47555;51.038;6.280;2022-09-09T16:05:09;17.50;99.90
25154;DHT22;47555;51.038;6.280;2022-09-09T16:07:34;17.60;99.90
25154;DHT22;47555;51.038;6.280;2022-09-09T16:10:01;17.60;99.90
25154;DHT22;47555;51.038;6.280;2022-09-09T16:12:26;17.60;99.90
25154;DHT22;47555;51.038;6.280;2022-09-09T16:14:52;17.70;99.90
25154;DHT22;47555;51.038;6.280;2022-09-09T16:17:17;17.80;99.90
25154;DHT22;47555;51.038;6.280;2022-09-09T16:19:45;17.80;99.90
25154;DHT22;47555;51.038;6.280;2022-09-09T16:22:11;17.90;99.90
25154;DHT22;47555;51.038;6.280;2022-09-09T16:24:36;18.00;99.90
25154;DHT22;47555;51.038;6.280;2022-09-09T16:27:02;18.10;99.90
25154;DHT22;47555;51.038;6.280;2022-09-09T16:29:28;18.10;99.90
25154;DHT22;47555;51.038;6.280;2022-09-09T16:31:54;18.10;99.90
25154;DHT22;47555;51.038;6.280;2022-09-09T16:34:21;18.10;99.90
25154;DHT22;47555;51.038;6.280;2022-09-09T16:36:48;18.10;99.90
25154;DHT22;47555;51.038;6.280;2022-09-09T16:39:15;18.10;99.90
25154;DHT22;47555;51.038;6.280;2022-09-09T16:41:42;18.10;99.90
25154;DHT22;47555;51.038;6.280;2022-09-09T16:44:10;18.10;99.90
25154;DHT22;47555;51.038;6.280;2022-09-09T16:46:38;18.00;99.90
25154;DHT22;47555;51.038;6.280;2022-09-09T16:49:08;18.00;99.90
25154;DHT22;47555;51.038;6.280;2022-09-09T16:51:39;18.00;99.90
25154;DHT22;47555;51.038;6.280;2022-09-09T16:54:06;17.90;99.90
25154;DHT22;47555;51.038;6.280;2022-09-09T16:56:33;17.90;99.90
25154;DHT22;47555;51.038;6.280;2022-09-09T16:59:03;17.80;99.90
25154;DHT22;47555;51.038;6.280;2022-09-09T17:01:32;17.80;99.90
25154;DHT22;47555;51.038;6.280;2022-09-09T17:04:02;17.80;99.90
25154;DHT22;47555;51.038;6.280;2022-09-09T17:06:29;17.80;99.90
25154;DHT22;47555;51.038;6.280;2022-09-09T17:09:01;17.80;99.90
25154;DHT22;47555;51.038;6.280;2022-09-09T17:11:28;17.70;99.90
25154;DHT22;47555;51.038;6.280;2022-09-09T17:13:54;17.60;99.90
25154;DHT22;47555;51.038;6.280;2022-09-09T17:16:21;17.60;99.90
25154;DHT22;47555;51.038;6.280;2022-09-09T17:18:48;17.60;99.90
25154;DHT22;47555;51.038;6.280;2022-09-09T17:21:18;17.50;99.90
25154;DHT22;47555;51.038;6.280;2022-09-09T17:23:44;17.50;99.90
25154;DHT22;47555;51.038;6.280;2022-09-09T17:26:12;17.50;99.90
25154;DHT22;47555;51.038;6.280;2022-09-09T17:28:39;17.40;99.90
25154;DHT22;47555;51.038;6.280;2022-09-09T17:31:06;17.30;99.90